createdAt,value
2017-11-21T00:00:21.995Z,0
2017-11-21T00:01:23.384Z,0
2017-11-21T00:02:24.772Z,0
2017-11-21T00:03:26.159Z,0
2017-11-21T00:04:27.554Z,0
2017-11-21T00:05:28.936Z,0
2017-11-21T00:06:30.322Z,0
2017-11-21T00:07:31.709Z,0
2017-11-21T00:08:33.098Z,0
2017-11-21T00:09:34.487Z,0
2017-11-21T00:10:35.876Z,0
2017-11-21T00:11:37.262Z,0
2017-11-21T00:12:38.650Z,0
2017-11-21T00:13:40.036Z,0
2017-11-21T00:14:41.425Z,0
2017-11-21T00:15:42.811Z,0
2017-11-21T00:16:44.204Z,0
2017-11-21T00:17:45.593Z,0
2017-11-21T00:18:46.983Z,0
2017-11-21T00:19:48.369Z,0
2017-11-21T00:20:49.777Z,0
2017-11-21T00:21:51.146Z,0
2017-11-21T00:22:52.533Z,0
2017-11-21T00:23:53.921Z,0
2017-11-21T00:24:55.311Z,0
2017-11-21T00:25:56.700Z,0
2017-11-21T00:26:58.084Z,0
2017-11-21T00:27:59.497Z,0
2017-11-21T00:29:00.859Z,0
2017-11-21T00:30:02.339Z,0
2017-11-21T00:31:03.726Z,0
2017-11-21T00:32:05.121Z,0
2017-11-21T00:33:06.504Z,0
2017-11-21T00:34:07.893Z,0
2017-11-21T00:35:09.283Z,0
2017-11-21T00:36:10.677Z,0
2017-11-21T00:37:12.057Z,0
2017-11-21T00:38:13.446Z,0
2017-11-21T00:39:14.833Z,0
2017-11-21T00:40:16.222Z,0
2017-11-21T00:41:17.610Z,0
2017-11-21T00:42:19.001Z,0
2017-11-21T00:43:20.402Z,0
2017-11-21T00:44:21.791Z,0
2017-11-21T00:45:23.182Z,0
2017-11-21T00:46:24.571Z,0
2017-11-21T00:47:25.958Z,0
2017-11-21T00:48:27.351Z,0
2017-11-21T00:49:28.732Z,0
2017-11-21T00:50:30.117Z,0
2017-11-21T00:51:31.507Z,0
2017-11-21T00:52:32.899Z,0
2017-11-21T00:53:34.287Z,0
2017-11-21T00:54:35.672Z,0
2017-11-21T00:55:37.061Z,0
2017-11-21T00:56:38.448Z,0
2017-11-21T00:57:39.833Z,0
2017-11-21T00:58:41.221Z,0
2017-11-21T00:59:42.610Z,0
2017-11-21T01:00:44.001Z,0
2017-11-21T01:01:45.385Z,0
2017-11-21T01:02:46.772Z,0
2017-11-21T01:03:48.159Z,0
2017-11-21T01:04:49.544Z,0
2017-11-21T01:05:50.934Z,0
2017-11-21T01:06:52.321Z,0
2017-11-21T01:07:53.713Z,0
2017-11-21T01:08:55.104Z,0
2017-11-21T01:09:56.491Z,0
2017-11-21T01:10:57.875Z,0
2017-11-21T01:11:59.265Z,0
2017-11-21T01:13:00.654Z,0
2017-11-21T01:14:02.043Z,0
2017-11-21T01:15:03.431Z,0
2017-11-21T01:16:04.819Z,0
2017-11-21T01:17:06.208Z,0
2017-11-21T01:18:07.595Z,0
2017-11-21T01:19:08.983Z,0
2017-11-21T01:20:10.373Z,0
2017-11-21T01:21:11.757Z,0
2017-11-21T01:22:13.144Z,0
2017-11-21T01:23:14.532Z,0
2017-11-21T01:24:15.919Z,0
2017-11-21T01:25:17.310Z,0
2017-11-21T01:26:18.694Z,0
2017-11-21T01:27:20.084Z,0
2017-11-21T01:28:21.476Z,0
2017-11-21T01:29:22.864Z,0
2017-11-21T01:30:24.251Z,0
2017-11-21T01:31:25.644Z,0
2017-11-21T01:32:27.032Z,0
2017-11-21T01:33:28.419Z,0
2017-11-21T01:34:29.812Z,0
2017-11-21T01:35:31.197Z,0
2017-11-21T01:36:32.591Z,0
2017-11-21T01:37:33.979Z,0
2017-11-21T01:38:35.373Z,0
2017-11-21T01:39:36.769Z,0
2017-11-21T01:40:38.156Z,0
2017-11-21T01:41:39.547Z,0
2017-11-21T01:42:40.935Z,0
2017-11-21T01:43:42.332Z,0
2017-11-21T01:44:43.713Z,0
2017-11-21T01:45:45.098Z,0
2017-11-21T01:46:46.484Z,0
2017-11-21T01:47:47.878Z,0
2017-11-21T01:48:49.264Z,0
2017-11-21T01:49:50.651Z,0
2017-11-21T01:50:52.036Z,0
2017-11-21T01:51:53.433Z,0
2017-11-21T01:52:54.813Z,0
2017-11-21T01:53:56.198Z,0
2017-11-21T01:54:57.586Z,0
2017-11-21T01:55:58.977Z,0
2017-11-21T01:57:00.367Z,0
2017-11-21T01:58:01.754Z,0
2017-11-21T01:59:03.147Z,0
2017-11-21T02:00:04.535Z,0
2017-11-21T02:01:05.926Z,0
2017-11-21T02:02:07.312Z,0
2017-11-21T02:03:08.711Z,0
2017-11-21T02:04:10.099Z,0
2017-11-21T02:05:11.487Z,0
2017-11-21T02:06:12.875Z,0
2017-11-21T02:07:14.261Z,0
2017-11-21T02:08:15.648Z,0
2017-11-21T02:09:17.035Z,0
2017-11-21T02:10:18.422Z,0
2017-11-21T02:11:19.814Z,0
2017-11-21T02:12:21.201Z,0
2017-11-21T02:13:22.588Z,0
2017-11-21T02:14:23.975Z,0
2017-11-21T02:15:25.362Z,0
2017-11-21T02:16:26.748Z,0
2017-11-21T02:17:28.135Z,0
2017-11-21T02:18:29.524Z,0
2017-11-21T02:19:30.914Z,0
2017-11-21T02:20:32.302Z,0
2017-11-21T02:21:33.688Z,0
2017-11-21T02:22:35.080Z,0
2017-11-21T02:23:36.468Z,0
2017-11-21T02:24:37.856Z,0
2017-11-21T02:25:39.246Z,0
2017-11-21T02:26:40.635Z,0
2017-11-21T02:27:42.022Z,0
2017-11-21T02:28:43.413Z,0
2017-11-21T02:29:44.800Z,0
2017-11-21T02:30:46.189Z,0
2017-11-21T02:31:47.574Z,0
2017-11-21T02:32:48.964Z,0
2017-11-21T02:33:50.404Z,0
2017-11-21T02:34:51.796Z,0
2017-11-21T02:35:53.208Z,0
2017-11-21T02:36:54.569Z,0
2017-11-21T02:37:55.959Z,0
2017-11-21T02:38:57.347Z,0
2017-11-21T02:39:58.734Z,0
2017-11-21T02:41:00.127Z,0
2017-11-21T02:42:01.516Z,0
2017-11-21T02:43:02.903Z,0
2017-11-21T02:44:04.290Z,0
2017-11-21T02:45:05.678Z,0
2017-11-21T02:46:07.068Z,0
2017-11-21T02:47:08.460Z,0
2017-11-21T02:48:09.848Z,0
2017-11-21T02:49:11.238Z,0
2017-11-21T02:50:12.625Z,0
2017-11-21T02:51:14.013Z,0
2017-11-21T02:52:15.402Z,0
2017-11-21T02:53:16.791Z,0
2017-11-21T02:54:18.178Z,0
2017-11-21T02:55:19.573Z,0
2017-11-21T02:56:20.964Z,0
2017-11-21T02:57:22.354Z,0
2017-11-21T02:58:23.741Z,0
2017-11-21T02:59:25.130Z,0
2017-11-21T03:00:26.520Z,0
2017-11-21T03:01:27.911Z,0
2017-11-21T03:02:29.301Z,0
2017-11-21T03:03:30.689Z,0
2017-11-21T03:04:32.076Z,0
2017-11-21T03:05:33.462Z,0
2017-11-21T03:06:34.851Z,0
2017-11-21T03:07:36.235Z,0
2017-11-21T03:08:37.626Z,0
2017-11-21T03:09:39.013Z,0
2017-11-21T03:10:40.395Z,0
2017-11-21T03:11:41.785Z,0
2017-11-21T03:12:43.174Z,0
2017-11-21T03:13:44.562Z,0
2017-11-21T03:14:45.950Z,0
2017-11-21T03:15:47.346Z,0
2017-11-21T03:16:48.736Z,0
2017-11-21T03:17:50.125Z,0
2017-11-21T03:18:51.515Z,0
2017-11-21T03:19:52.902Z,0
2017-11-21T03:20:54.289Z,0
2017-11-21T03:21:55.680Z,0
2017-11-21T03:22:57.065Z,0
2017-11-21T03:23:58.454Z,0
2017-11-21T03:24:59.843Z,0
2017-11-21T03:26:01.227Z,0
2017-11-21T03:27:02.619Z,0
2017-11-21T03:28:04.008Z,0
2017-11-21T03:29:05.399Z,0
2017-11-21T03:30:06.804Z,0
2017-11-21T03:31:08.194Z,0
2017-11-21T03:32:09.579Z,0
2017-11-21T03:33:10.969Z,0
2017-11-21T03:34:12.369Z,0
2017-11-21T03:35:13.748Z,0
2017-11-21T03:36:15.145Z,0
2017-11-21T03:37:16.534Z,0
2017-11-21T03:38:17.921Z,0
2017-11-21T03:39:19.306Z,0
2017-11-21T03:40:20.694Z,0
2017-11-21T03:41:22.081Z,0
2017-11-21T03:42:23.468Z,0
2017-11-21T03:43:24.860Z,0
2017-11-21T03:44:26.245Z,0
2017-11-21T03:45:27.635Z,0
2017-11-21T03:46:29.024Z,0
2017-11-21T03:47:30.411Z,0
2017-11-21T03:48:31.798Z,0
2017-11-21T03:49:33.185Z,0
2017-11-21T03:50:34.573Z,0
2017-11-21T03:51:35.964Z,0
2017-11-21T03:52:37.351Z,0
2017-11-21T03:53:38.736Z,0
2017-11-21T03:54:40.124Z,0
2017-11-21T03:55:41.512Z,0
2017-11-21T03:56:42.917Z,0
2017-11-21T03:57:44.291Z,0
2017-11-21T03:58:45.681Z,0
2017-11-21T03:59:47.068Z,0
2017-11-21T04:00:48.455Z,0
2017-11-21T04:01:49.842Z,0
2017-11-21T04:02:51.232Z,0
2017-11-21T04:03:52.620Z,0
2017-11-21T04:04:54.008Z,0
2017-11-21T04:05:55.402Z,0
2017-11-21T04:06:56.791Z,0
2017-11-21T04:07:58.177Z,0
2017-11-21T04:08:59.577Z,0
2017-11-21T04:10:00.956Z,0
2017-11-21T04:11:02.346Z,0
2017-11-21T04:12:03.736Z,0
2017-11-21T04:13:05.124Z,0
2017-11-21T04:14:06.520Z,0
2017-11-21T04:15:07.907Z,0
2017-11-21T04:16:09.293Z,0
2017-11-21T04:17:10.679Z,0
2017-11-21T04:18:12.068Z,0
2017-11-21T04:19:13.455Z,0
2017-11-21T04:20:14.844Z,0
2017-11-21T04:21:16.239Z,0
2017-11-21T04:22:17.624Z,0
2017-11-21T04:23:19.014Z,0
2017-11-21T04:24:20.405Z,0
2017-11-21T04:25:21.853Z,0
2017-11-21T04:26:23.243Z,0
2017-11-21T04:27:24.633Z,0
2017-11-21T04:28:26.025Z,0
2017-11-21T04:29:27.409Z,0
2017-11-21T04:30:28.807Z,0
2017-11-21T04:31:30.188Z,0
2017-11-21T04:32:31.579Z,0
2017-11-21T04:33:32.966Z,0
2017-11-21T04:34:34.356Z,0
2017-11-21T04:35:35.748Z,0
2017-11-21T04:36:37.134Z,0
2017-11-21T04:37:38.520Z,0
2017-11-21T04:38:39.904Z,0
2017-11-21T04:39:41.292Z,0
2017-11-21T04:40:42.679Z,0
2017-11-21T04:41:44.068Z,0
2017-11-21T04:42:45.459Z,0
2017-11-21T04:43:46.850Z,0
2017-11-21T04:44:48.232Z,0
2017-11-21T04:45:49.629Z,0
2017-11-21T04:46:51.015Z,0
2017-11-21T04:47:52.403Z,0
2017-11-21T04:48:53.794Z,0
2017-11-21T04:49:55.184Z,0
2017-11-21T04:50:56.572Z,0
2017-11-21T04:51:57.963Z,0
2017-11-21T04:52:59.350Z,0
2017-11-21T04:54:00.744Z,0
2017-11-21T04:55:02.136Z,0
2017-11-21T04:56:03.529Z,0
2017-11-21T04:57:04.922Z,0
2017-11-21T04:58:06.309Z,0
2017-11-21T04:59:07.723Z,0
2017-11-21T05:00:09.114Z,0
2017-11-21T05:01:10.500Z,0
2017-11-21T05:02:11.889Z,0
2017-11-21T05:03:13.283Z,0
2017-11-21T05:04:14.670Z,0
2017-11-21T05:05:16.057Z,0
2017-11-21T05:06:17.445Z,0
2017-11-21T05:07:18.831Z,0
2017-11-21T05:08:20.220Z,0
2017-11-21T05:09:21.609Z,0
2017-11-21T05:10:23.001Z,0
2017-11-21T05:11:24.392Z,0
2017-11-21T05:12:25.782Z,0
2017-11-21T05:13:27.170Z,0
2017-11-21T05:14:28.561Z,0
2017-11-21T05:15:29.953Z,0
2017-11-21T05:16:31.341Z,0
2017-11-21T05:17:32.734Z,0
2017-11-21T05:18:34.119Z,0
2017-11-21T05:19:35.503Z,0
2017-11-21T05:20:36.898Z,0
2017-11-21T05:21:38.287Z,0
2017-11-21T05:22:39.675Z,0
2017-11-21T05:23:41.066Z,0
2017-11-21T05:24:42.454Z,0
2017-11-21T05:25:43.841Z,0
2017-11-21T05:26:45.228Z,0
2017-11-21T05:27:46.614Z,0
2017-11-21T05:28:48.001Z,0
2017-11-21T05:29:49.390Z,0
2017-11-21T05:30:50.778Z,0
2017-11-21T05:31:52.169Z,0
2017-11-21T05:32:53.560Z,0
2017-11-21T05:33:54.948Z,0
2017-11-21T05:34:56.339Z,0
2017-11-21T05:35:57.729Z,0
2017-11-21T05:36:59.115Z,0
2017-11-21T05:38:00.507Z,0
2017-11-21T05:39:01.895Z,0
2017-11-21T05:40:03.286Z,0
2017-11-21T05:41:04.676Z,0
2017-11-21T05:42:06.063Z,0
2017-11-21T05:43:07.449Z,0
2017-11-21T05:44:08.839Z,0
2017-11-21T05:45:10.229Z,0
2017-11-21T05:46:11.620Z,0
2017-11-21T05:47:13.012Z,0
2017-11-21T05:48:14.399Z,0
2017-11-21T05:49:15.785Z,0
2017-11-21T05:50:17.177Z,0
2017-11-21T05:51:18.566Z,0
2017-11-21T05:52:20.003Z,0
2017-11-21T05:53:21.391Z,0
2017-11-21T05:54:22.780Z,0
2017-11-21T05:55:24.173Z,0
2017-11-21T05:56:25.554Z,0
2017-11-21T05:57:26.947Z,0
2017-11-21T05:58:28.337Z,0
2017-11-21T05:59:29.726Z,0
2017-11-21T06:00:31.116Z,0
2017-11-21T06:01:32.508Z,0
2017-11-21T06:02:33.896Z,0
2017-11-21T06:03:35.282Z,0
2017-11-21T06:04:36.671Z,0
2017-11-21T06:05:38.066Z,0
2017-11-21T06:06:39.451Z,0
2017-11-21T06:07:40.842Z,0
2017-11-21T06:08:42.233Z,0
2017-11-21T06:09:43.620Z,0
2017-11-21T06:10:45.006Z,0
2017-11-21T06:11:46.396Z,0
2017-11-21T06:12:47.799Z,0
2017-11-21T06:13:49.171Z,0
2017-11-21T06:14:50.559Z,0
2017-11-21T06:15:51.949Z,0
2017-11-21T06:16:53.388Z,0
2017-11-21T06:17:54.777Z,0
2017-11-21T06:18:56.164Z,0
2017-11-21T06:19:57.550Z,0
2017-11-21T06:20:58.942Z,0
2017-11-21T06:22:00.334Z,0
2017-11-21T06:23:01.724Z,0
2017-11-21T06:24:03.109Z,0
2017-11-21T06:25:04.499Z,0
2017-11-21T06:26:05.891Z,0
2017-11-21T06:27:07.280Z,0
2017-11-21T06:28:08.785Z,0
2017-11-21T06:29:10.175Z,0
2017-11-21T06:30:11.564Z,0
2017-11-21T06:31:12.975Z,0
2017-11-21T06:32:14.339Z,0
2017-11-21T06:33:15.726Z,0
2017-11-21T06:34:17.114Z,0
2017-11-21T06:35:18.503Z,0
2017-11-21T06:36:19.894Z,0
2017-11-21T06:37:21.287Z,0
2017-11-21T06:38:22.676Z,0
2017-11-21T06:39:24.062Z,0
2017-11-21T06:40:25.451Z,0
2017-11-21T06:41:26.838Z,4
2017-11-21T06:42:28.227Z,4
2017-11-21T06:43:29.621Z,4
2017-11-21T06:44:31.010Z,0
2017-11-21T06:45:32.396Z,0
2017-11-21T06:46:33.785Z,4
2017-11-21T06:47:35.176Z,4
2017-11-21T06:48:36.579Z,4
2017-11-21T06:49:37.948Z,4
2017-11-21T06:50:39.339Z,4
2017-11-21T06:51:40.795Z,4
2017-11-21T06:52:42.184Z,4
2017-11-21T06:53:43.572Z,8
2017-11-21T06:54:44.957Z,8
2017-11-21T06:55:46.344Z,4
2017-11-21T06:56:47.741Z,8
2017-11-21T06:57:49.125Z,8
2017-11-21T06:58:50.517Z,8
2017-11-21T06:59:51.905Z,8
2017-11-21T07:00:53.292Z,12
2017-11-21T07:01:54.682Z,12
2017-11-21T07:02:56.072Z,12
2017-11-21T07:03:57.461Z,12
2017-11-21T07:04:58.852Z,16
2017-11-21T07:06:00.242Z,16
2017-11-21T07:07:01.631Z,16
2017-11-21T07:08:03.018Z,16
2017-11-21T07:09:04.407Z,20
2017-11-21T07:10:05.796Z,24
2017-11-21T07:11:07.186Z,28
2017-11-21T07:12:08.580Z,28
2017-11-21T07:13:09.969Z,28
2017-11-21T07:14:11.358Z,36
2017-11-21T07:15:12.751Z,32
2017-11-21T07:16:14.142Z,36
2017-11-21T07:17:15.531Z,36
2017-11-21T07:18:16.923Z,36
2017-11-21T07:19:18.311Z,44
2017-11-21T07:20:19.719Z,40
2017-11-21T07:21:21.093Z,44
2017-11-21T07:22:22.483Z,52
2017-11-21T07:23:23.874Z,52
2017-11-21T07:24:25.261Z,48
2017-11-21T07:25:26.651Z,52
2017-11-21T07:26:28.039Z,56
2017-11-21T07:27:29.435Z,60
2017-11-21T07:28:30.830Z,64
2017-11-21T07:29:32.218Z,64
2017-11-21T07:30:33.607Z,68
2017-11-21T07:31:34.997Z,68
2017-11-21T07:32:36.387Z,68
2017-11-21T07:33:37.781Z,76
2017-11-21T07:34:39.180Z,80
2017-11-21T07:35:40.555Z,92
2017-11-21T07:36:41.945Z,112
2017-11-21T07:37:43.338Z,128
2017-11-21T07:38:44.730Z,140
2017-11-21T07:39:46.120Z,148
2017-11-21T07:40:47.520Z,132
2017-11-21T07:41:48.906Z,128
2017-11-21T07:42:50.298Z,132
2017-11-21T07:43:51.688Z,128
2017-11-21T07:44:53.075Z,132
2017-11-21T07:45:54.466Z,156
2017-11-21T07:46:55.861Z,160
2017-11-21T07:47:57.247Z,176
2017-11-21T07:48:58.637Z,188
2017-11-21T07:50:00.029Z,164
2017-11-21T07:51:01.420Z,176
2017-11-21T07:52:02.819Z,172
2017-11-21T07:53:04.205Z,208
2017-11-21T07:54:05.593Z,220
2017-11-21T07:55:06.988Z,220
2017-11-21T07:56:08.379Z,204
2017-11-21T07:57:09.773Z,204
2017-11-21T07:58:11.159Z,188
2017-11-21T07:59:12.551Z,160
2017-11-21T08:00:13.940Z,136
2017-11-21T08:01:15.332Z,108
2017-11-21T08:02:16.722Z,112
2017-11-21T08:03:18.117Z,104
2017-11-21T08:04:19.514Z,100
2017-11-21T08:05:20.900Z,112
2017-11-21T08:06:22.290Z,124
2017-11-21T08:07:23.686Z,160
2017-11-21T08:08:25.067Z,192
2017-11-21T08:09:26.464Z,256
2017-11-21T08:10:27.860Z,308
2017-11-21T08:11:29.245Z,292
2017-11-21T08:12:30.636Z,276
2017-11-21T08:13:32.031Z,256
2017-11-21T08:14:33.433Z,320
2017-11-21T08:15:34.818Z,320
2017-11-21T08:16:36.210Z,272
2017-11-21T08:17:37.604Z,264
2017-11-21T08:18:38.995Z,268
2017-11-21T08:19:40.386Z,264
2017-11-21T08:20:41.781Z,288
2017-11-21T08:21:43.170Z,304
2017-11-21T08:22:44.568Z,260
2017-11-21T08:23:45.958Z,272
2017-11-21T08:24:47.352Z,284
2017-11-21T08:25:48.742Z,268
2017-11-21T08:26:50.133Z,268
2017-11-21T08:27:51.526Z,252
2017-11-21T08:28:52.918Z,248
2017-11-21T08:29:54.309Z,268
2017-11-21T08:30:55.704Z,288
2017-11-21T08:31:57.095Z,296
2017-11-21T08:32:58.485Z,312
2017-11-21T08:33:59.876Z,312
2017-11-21T08:35:01.268Z,328
2017-11-21T08:36:02.660Z,340
2017-11-21T08:37:04.053Z,344
2017-11-21T08:38:05.447Z,372
2017-11-21T08:39:06.845Z,368
2017-11-21T08:40:08.240Z,332
2017-11-21T08:41:09.625Z,400
2017-11-21T08:42:11.017Z,388
2017-11-21T08:43:12.407Z,376
2017-11-21T08:44:13.805Z,392
2017-11-21T08:45:15.190Z,356
2017-11-21T08:46:16.582Z,348
2017-11-21T08:47:17.975Z,360
2017-11-21T08:48:19.365Z,336
2017-11-21T08:49:20.758Z,332
2017-11-21T08:50:22.150Z,324
2017-11-21T08:51:23.544Z,332
2017-11-21T08:52:24.936Z,300
2017-11-21T08:53:26.328Z,308
2017-11-21T08:54:27.718Z,376
2017-11-21T08:55:29.109Z,376
2017-11-21T08:56:30.498Z,436
2017-11-21T08:57:31.888Z,428
2017-11-21T08:58:33.286Z,496
2017-11-21T08:59:34.676Z,480
2017-11-21T09:00:36.070Z,584
2017-11-21T09:01:37.461Z,608
2017-11-21T09:02:38.856Z,648
2017-11-21T09:03:40.246Z,616
2017-11-21T09:04:41.638Z,608
2017-11-21T09:05:43.032Z,648
2017-11-21T09:06:44.429Z,700
2017-11-21T09:07:45.823Z,704
2017-11-21T09:08:47.211Z,596
2017-11-21T09:09:48.601Z,632
2017-11-21T09:10:49.998Z,656
2017-11-21T09:11:51.387Z,544
2017-11-21T09:12:52.781Z,564
2017-11-21T09:13:54.178Z,600
2017-11-21T09:14:55.577Z,560
2017-11-21T09:15:56.991Z,500
2017-11-21T09:16:58.375Z,544
2017-11-21T09:17:59.753Z,504
2017-11-21T09:19:01.144Z,512
2017-11-21T09:20:02.537Z,520
2017-11-21T09:21:03.930Z,532
2017-11-21T09:22:05.327Z,552
2017-11-21T09:23:06.721Z,504
2017-11-21T09:24:08.116Z,516
2017-11-21T09:25:09.510Z,504
2017-11-21T09:26:10.901Z,576
2017-11-21T09:27:12.321Z,528
2017-11-21T09:28:13.689Z,520
2017-11-21T09:29:15.083Z,584
2017-11-21T09:30:16.475Z,632
2017-11-21T09:31:17.866Z,700
2017-11-21T09:32:19.264Z,724
2017-11-21T09:33:20.652Z,732
2017-11-21T09:34:22.047Z,688
2017-11-21T09:35:23.444Z,716
2017-11-21T09:36:24.838Z,692
2017-11-21T09:37:26.230Z,656
2017-11-21T09:38:27.622Z,592
2017-11-21T09:39:29.016Z,472
2017-11-21T09:40:30.409Z,400
2017-11-21T09:41:31.803Z,436
2017-11-21T09:42:33.194Z,412
2017-11-21T09:43:34.590Z,452
2017-11-21T09:44:35.983Z,408
2017-11-21T09:45:37.375Z,436
2017-11-21T09:46:38.770Z,460
2017-11-21T09:47:40.158Z,432
2017-11-21T09:48:41.553Z,424
2017-11-21T09:49:42.945Z,492
2017-11-21T09:50:44.339Z,484
2017-11-21T09:51:45.728Z,504
2017-11-21T09:52:47.118Z,632
2017-11-21T09:53:48.512Z,724
2017-11-21T09:54:49.903Z,784
2017-11-21T09:55:51.307Z,796
2017-11-21T09:56:52.692Z,840
2017-11-21T09:57:54.089Z,816
2017-11-21T09:58:55.484Z,804
2017-11-21T09:59:56.890Z,908
2017-11-21T10:00:58.285Z,860
2017-11-21T10:01:59.676Z,788
2017-11-21T10:03:01.070Z,824
2017-11-21T10:04:02.464Z,872
2017-11-21T10:05:03.861Z,920
2017-11-21T10:06:05.251Z,764
2017-11-21T10:07:06.645Z,676
2017-11-21T10:08:08.038Z,680
2017-11-21T10:09:09.431Z,692
2017-11-21T10:10:10.822Z,712
2017-11-21T10:11:12.223Z,760
2017-11-21T10:12:13.615Z,776
2017-11-21T10:13:15.006Z,820
2017-11-21T10:14:16.397Z,864
2017-11-21T10:15:17.792Z,784
2017-11-21T10:16:19.185Z,756
2017-11-21T10:17:20.575Z,724
2017-11-21T10:18:21.966Z,732
2017-11-21T10:19:23.363Z,784
2017-11-21T10:20:24.757Z,804
2017-11-21T10:21:26.144Z,716
2017-11-21T10:22:27.534Z,740
2017-11-21T10:23:28.939Z,800
2017-11-21T10:24:30.322Z,856
2017-11-21T10:25:31.714Z,832
2017-11-21T10:26:33.113Z,864
2017-11-21T10:27:34.503Z,880
2017-11-21T10:28:35.893Z,780
2017-11-21T10:29:37.282Z,824
2017-11-21T10:30:38.676Z,800
2017-11-21T10:31:40.088Z,864
2017-11-21T10:32:41.460Z,796
2017-11-21T10:33:42.856Z,804
2017-11-21T10:34:44.250Z,920
2017-11-21T10:35:45.644Z,1028
2017-11-21T10:36:47.037Z,952
2017-11-21T10:37:48.427Z,940
2017-11-21T10:38:49.825Z,816
2017-11-21T10:39:51.211Z,856
2017-11-21T10:40:52.606Z,948
2017-11-21T10:41:53.999Z,936
2017-11-21T10:42:55.389Z,944
2017-11-21T10:43:56.785Z,1024
2017-11-21T10:44:58.180Z,1084
2017-11-21T10:45:59.581Z,984
2017-11-21T10:47:00.968Z,1184
2017-11-21T10:48:02.364Z,1304
2017-11-21T10:49:03.759Z,1528
2017-11-21T10:50:05.146Z,1632
2017-11-21T10:51:06.542Z,1764
2017-11-21T10:52:07.935Z,1884
2017-11-21T10:53:09.326Z,1784
2017-11-21T10:54:10.727Z,1720
2017-11-21T10:55:12.121Z,1520
2017-11-21T10:56:13.516Z,1328
2017-11-21T10:57:14.907Z,1392
2017-11-21T10:58:16.367Z,1516
2017-11-21T10:59:17.914Z,1696
2017-11-21T11:00:19.316Z,1696
2017-11-21T11:01:20.723Z,1844
2017-11-21T11:02:22.126Z,1892
2017-11-21T11:03:23.513Z,2064
2017-11-21T11:04:24.907Z,1852
2017-11-21T11:05:26.301Z,1588
2017-11-21T11:06:27.702Z,1624
2017-11-21T11:07:29.101Z,1656
2017-11-21T11:08:30.503Z,1352
2017-11-21T11:09:31.895Z,1380
2017-11-21T11:10:33.288Z,1380
2017-11-21T11:11:34.689Z,1440
2017-11-21T11:12:36.079Z,1408
2017-11-21T11:13:37.473Z,1196
2017-11-21T11:14:38.864Z,1228
2017-11-21T11:15:40.260Z,1396
2017-11-21T11:16:41.660Z,1384
2017-11-21T11:17:43.058Z,1320
2017-11-21T11:18:44.449Z,1404
2017-11-21T11:19:45.847Z,1480
2017-11-21T11:20:47.239Z,1544
2017-11-21T11:21:48.639Z,1544
2017-11-21T11:22:50.030Z,1588
2017-11-21T11:23:51.426Z,1436
2017-11-21T11:24:52.821Z,1444
2017-11-21T11:25:54.214Z,1312
2017-11-21T11:26:55.611Z,1552
2017-11-21T11:27:57.005Z,1496
2017-11-21T11:28:58.402Z,1304
2017-11-21T11:29:59.800Z,1328
2017-11-21T11:31:01.194Z,1392
2017-11-21T11:32:02.586Z,1468
2017-11-21T11:33:03.978Z,1404
2017-11-21T11:34:05.375Z,1352
2017-11-21T11:35:06.771Z,1384
2017-11-21T11:36:08.169Z,1360
2017-11-21T11:37:09.566Z,1512
2017-11-21T11:38:10.964Z,1752
2017-11-21T11:39:12.357Z,1876
2017-11-21T11:40:13.748Z,2176
2017-11-21T11:41:15.140Z,2228
2017-11-21T11:42:16.532Z,2180
2017-11-21T11:43:17.926Z,2128
2017-11-21T11:44:19.326Z,1804
2017-11-21T11:45:20.721Z,1668
2017-11-21T11:46:22.116Z,1648
2017-11-21T11:47:23.567Z,1668
2017-11-21T11:48:24.955Z,1736
2017-11-21T11:49:26.352Z,1956
2017-11-21T11:50:27.750Z,2072
2017-11-21T11:51:29.144Z,2180
2017-11-21T11:52:30.544Z,2288
2017-11-21T11:53:31.937Z,2512
2017-11-21T11:54:33.326Z,2908
2017-11-21T11:55:34.723Z,2608
2017-11-21T11:56:36.118Z,2864
2017-11-21T11:57:37.511Z,2784
2017-11-21T11:58:38.905Z,2384
2017-11-21T11:59:40.301Z,2084
2017-11-21T12:00:41.691Z,1828
2017-11-21T12:01:43.081Z,1500
2017-11-21T12:02:44.478Z,1576
2017-11-21T12:03:45.874Z,1708
2017-11-21T12:04:47.270Z,1788
2017-11-21T12:05:48.663Z,2068
2017-11-21T12:06:50.059Z,2012
2017-11-21T12:07:51.452Z,1904
2017-11-21T12:08:52.844Z,1864
2017-11-21T12:09:54.239Z,1764
2017-11-21T12:10:55.638Z,1544
2017-11-21T12:11:57.027Z,1492
2017-11-21T12:12:58.429Z,1300
2017-11-21T12:13:59.819Z,1416
2017-11-21T12:15:01.213Z,1356
2017-11-21T12:16:02.603Z,1256
2017-11-21T12:17:03.997Z,1264
2017-11-21T12:18:05.389Z,1304
2017-11-21T12:19:06.783Z,1272
2017-11-21T12:20:08.173Z,1272
2017-11-21T12:21:09.573Z,1344
2017-11-21T12:22:10.968Z,1424
2017-11-21T12:23:12.360Z,1540
2017-11-21T12:24:13.754Z,1516
2017-11-21T12:25:15.146Z,1508
2017-11-21T12:26:16.541Z,1340
2017-11-21T12:27:17.938Z,1368
2017-11-21T12:28:19.332Z,1304
2017-11-21T12:29:20.725Z,1320
2017-11-21T12:30:22.122Z,1316
2017-11-21T12:31:23.513Z,1324
2017-11-21T12:32:24.904Z,1380
2017-11-21T12:33:26.305Z,1508
2017-11-21T12:34:27.692Z,1584
2017-11-21T12:35:29.089Z,1752
2017-11-21T12:36:30.480Z,1832
2017-11-21T12:37:31.898Z,1408
2017-11-21T12:38:33.265Z,1484
2017-11-21T12:39:34.659Z,1568
2017-11-21T12:40:36.053Z,1656
2017-11-21T12:41:37.446Z,1720
2017-11-21T12:42:38.840Z,1844
2017-11-21T12:43:40.231Z,1928
2017-11-21T12:44:41.623Z,1880
2017-11-21T12:45:43.026Z,2096
2017-11-21T12:46:44.411Z,2364
2017-11-21T12:47:45.811Z,2092
2017-11-21T12:48:47.202Z,2096
2017-11-21T12:49:48.598Z,2264
2017-11-21T12:50:49.990Z,2152
2017-11-21T12:51:51.385Z,2216
2017-11-21T12:52:52.777Z,2420
2017-11-21T12:53:54.168Z,2148
2017-11-21T12:54:55.563Z,2188
2017-11-21T12:55:56.963Z,2052
2017-11-21T12:56:58.357Z,2332
2017-11-21T12:57:59.747Z,1788
2017-11-21T12:59:01.138Z,2148
2017-11-21T13:00:02.532Z,1928
2017-11-21T13:01:03.924Z,1860
2017-11-21T13:02:05.318Z,2020
2017-11-21T13:03:06.718Z,2008
2017-11-21T13:04:08.105Z,2168
2017-11-21T13:05:09.500Z,1916
2017-11-21T13:06:10.890Z,2360
2017-11-21T13:07:12.288Z,2276
2017-11-21T13:08:13.682Z,2392
2017-11-21T13:09:15.076Z,1928
2017-11-21T13:10:16.470Z,2216
2017-11-21T13:11:17.864Z,1976
2017-11-21T13:12:19.261Z,2108
2017-11-21T13:13:20.648Z,2164
2017-11-21T13:14:22.040Z,1876
2017-11-21T13:15:23.431Z,1640
2017-11-21T13:16:24.824Z,1652
2017-11-21T13:17:26.219Z,1896
2017-11-21T13:18:27.611Z,1928
2017-11-21T13:19:29.024Z,1628
2017-11-21T13:20:30.397Z,1820
2017-11-21T13:21:31.790Z,1720
2017-11-21T13:22:33.181Z,1504
2017-11-21T13:23:34.574Z,1272
2017-11-21T13:24:35.971Z,1652
2017-11-21T13:25:37.371Z,1536
2017-11-21T13:26:38.760Z,1548
2017-11-21T13:27:40.151Z,1480
2017-11-21T13:28:41.544Z,1416
2017-11-21T13:29:42.937Z,1484
2017-11-21T13:30:44.329Z,1648
2017-11-21T13:31:45.720Z,2180
2017-11-21T13:32:47.116Z,2076
2017-11-21T13:33:48.509Z,1792
2017-11-21T13:34:49.902Z,1996
2017-11-21T13:35:51.297Z,1948
2017-11-21T13:36:52.736Z,2224
2017-11-21T13:37:54.132Z,2184
2017-11-21T13:38:55.533Z,2024
2017-11-21T13:39:56.921Z,1924
2017-11-21T13:40:58.314Z,2084
2017-11-21T13:41:59.703Z,2176
2017-11-21T13:43:01.093Z,2296
2017-11-21T13:44:02.483Z,2128
2017-11-21T13:45:03.880Z,1688
2017-11-21T13:46:05.272Z,1580
2017-11-21T13:47:06.667Z,1500
2017-11-21T13:48:08.055Z,1208
2017-11-21T13:49:09.453Z,1052
2017-11-21T13:50:10.837Z,996
2017-11-21T13:51:12.230Z,936
2017-11-21T13:52:13.623Z,968
2017-11-21T13:53:15.018Z,1228
2017-11-21T13:54:16.409Z,1272
2017-11-21T13:55:17.799Z,1248
2017-11-21T13:56:19.188Z,1020
2017-11-21T13:57:20.580Z,952
2017-11-21T13:58:21.970Z,868
2017-11-21T13:59:23.363Z,752
2017-11-21T14:00:24.754Z,844
2017-11-21T14:01:26.147Z,808
2017-11-21T14:02:27.534Z,804
2017-11-21T14:03:28.925Z,784
2017-11-21T14:04:30.320Z,748
2017-11-21T14:05:31.713Z,816
2017-11-21T14:06:33.108Z,732
2017-11-21T14:07:34.505Z,868
2017-11-21T14:08:35.900Z,816
2017-11-21T14:09:37.288Z,848
2017-11-21T14:10:38.680Z,904
2017-11-21T14:11:40.074Z,976
2017-11-21T14:12:41.465Z,972
2017-11-21T14:13:42.855Z,940
2017-11-21T14:14:44.249Z,956
2017-11-21T14:15:45.641Z,956
2017-11-21T14:16:47.034Z,960
2017-11-21T14:17:48.504Z,960
2017-11-21T14:18:49.918Z,976
2017-11-21T14:19:51.397Z,972
2017-11-21T14:20:52.778Z,944
2017-11-21T14:21:54.391Z,924
2017-11-21T14:22:55.828Z,876
2017-11-21T14:23:57.713Z,872
2017-11-21T14:24:59.379Z,848
2017-11-21T14:26:00.768Z,768
2017-11-21T14:27:02.158Z,724
2017-11-21T14:28:03.582Z,664
2017-11-21T14:29:05.229Z,624